Terminal Aerodrome Forecast
Issued by NWS Pocatello, ID

Home | Current Version | Previous Version | Text Only | Print | Product List | Glossary On
Versions: 1 2 3 4 5 6 7 8 9 10 11 12 13
000
FTUS45 KPIH 201125
TAFIDA
TAF
KIDA 201125Z 2012/2112 VRB04KT P6SM BKN120
     FM201600 21010KT P6SM VCSH SCT080 BKN120
     FM202000 24015G25KT P6SM VCTS FEW050 SCT080CB BKN120
     FM210300 21010KT P6SM SCT090 BKN130=

USA.gov is the U.S. government's official web portal to all federal, state and local government web resources and services.